sensor_id;sensor_type;location;lat;lon;timestamp;P1;durP1;ratioP1;P2;durP2;ratioP2
64885;SDS011;51514;52.206;5.114;2023-09-08T00:01:56;6.68;;;5.47;;
64885;SDS011;51514;52.206;5.114;2023-09-08T00:04:21;6.65;;;5.57;;
64885;SDS011;51514;52.206;5.114;2023-09-08T00:06:48;7.18;;;5.82;;
64885;SDS011;51514;52.206;5.114;2023-09-08T00:09:13;7.03;;;5.60;;
64885;SDS011;51514;52.206;5.114;2023-09-08T00:11:38;7.05;;;5.68;;
64885;SDS011;51514;52.206;5.114;2023-09-08T00:14:04;6.30;;;4.95;;
64885;SDS011;51514;52.206;5.114;2023-09-08T00:16:29;7.10;;;5.95;;
64885;SDS011;51514;52.206;5.114;2023-09-08T00:18:55;7.57;;;5.75;;
64885;SDS011;51514;52.206;5.114;2023-09-08T00:21:22;9.35;;;6.13;;
64885;SDS011;51514;52.206;5.114;2023-09-08T00:23:49;6.82;;;5.90;;
64885;SDS011;51514;52.206;5.114;2023-09-08T00:26:14;7.65;;;5.70;;
64885;SDS011;51514;52.206;5.114;2023-09-08T00:28:39;7.60;;;6.00;;
64885;SDS011;51514;52.206;5.114;2023-09-08T00:31:05;8.57;;;6.47;;
64885;SDS011;51514;52.206;5.114;2023-09-08T00:33:30;8.48;;;6.10;;
64885;SDS011;51514;52.206;5.114;2023-09-08T00:35:56;9.07;;;6.03;;
64885;SDS011;51514;52.206;5.114;2023-09-08T00:38:22;7.88;;;6.18;;
64885;SDS011;51514;52.206;5.114;2023-09-08T00:40:48;9.88;;;6.32;;
64885;SDS011;51514;52.206;5.114;2023-09-08T00:43:13;7.35;;;6.07;;
64885;SDS011;51514;52.206;5.114;2023-09-08T00:45:40;8.15;;;5.80;;
64885;SDS011;51514;52.206;5.114;2023-09-08T00:48:07;7.30;;;5.68;;
64885;SDS011;51514;52.206;5.114;2023-09-08T00:50:34;6.85;;;5.40;;
64885;SDS011;51514;52.206;5.114;2023-09-08T00:53:02;8.48;;;5.53;;
64885;SDS011;51514;52.206;5.114;2023-09-08T00:55:28;7.65;;;5.75;;
64885;SDS011;51514;52.206;5.114;2023-09-08T00:57:53;7.65;;;6.10;;
64885;SDS011;51514;52.206;5.114;2023-09-08T01:00:18;7.30;;;6.07;;
64885;SDS011;51514;52.206;5.114;2023-09-08T01:02:44;7.55;;;6.47;;
64885;SDS011;51514;52.206;5.114;2023-09-08T01:05:10;7.20;;;5.57;;
64885;SDS011;51514;52.206;5.114;2023-09-08T01:07:35;7.45;;;6.13;;
64885;SDS011;51514;52.206;5.114;2023-09-08T01:10:02;7.30;;;5.68;;
64885;SDS011;51514;52.206;5.114;2023-09-08T01:12:31;7.18;;;5.93;;
64885;SDS011;51514;52.206;5.114;2023-09-08T01:14:58;6.80;;;5.50;;
64885;SDS011;51514;52.206;5.114;2023-09-08T01:17:24;7.75;;;6.28;;
64885;SDS011;51514;52.206;5.114;2023-09-08T01:19:50;7.18;;;6.15;;
64885;SDS011;51514;52.206;5.114;2023-09-08T01:24:59;6.65;;;5.95;;
64885;SDS011;51514;52.206;5.114;2023-09-08T01:27:35;9.35;;;6.43;;
64885;SDS011;51514;52.206;5.114;2023-09-08T01:30:03;9.32;;;6.10;;
64885;SDS011;51514;52.206;5.114;2023-09-08T01:32:30;7.13;;;6.43;;
64885;SDS011;51514;52.206;5.114;2023-09-08T01:38:20;7.28;;;6.13;;
64885;SDS011;51514;52.206;5.114;2023-09-08T01:40:46;7.20;;;6.30;;
64885;SDS011;51514;52.206;5.114;2023-09-08T01:43:11;7.13;;;6.35;;
64885;SDS011;51514;52.206;5.114;2023-09-08T01:45:37;8.13;;;6.30;;
64885;SDS011;51514;52.206;5.114;2023-09-08T01:48:02;6.38;;;5.72;;
64885;SDS011;51514;52.206;5.114;2023-09-08T01:50:28;8.35;;;6.80;;
64885;SDS011;51514;52.206;5.114;2023-09-08T01:52:53;7.22;;;6.40;;
64885;SDS011;51514;52.206;5.114;2023-09-08T01:55:18;8.43;;;6.32;;
64885;SDS011;51514;52.206;5.114;2023-09-08T01:57:45;7.35;;;6.10;;
64885;SDS011;51514;52.206;5.114;2023-09-08T02:00:11;8.77;;;6.65;;
64885;SDS011;51514;52.206;5.114;2023-09-08T02:02:37;8.32;;;6.10;;
64885;SDS011;51514;52.206;5.114;2023-09-08T02:05:03;8.98;;;6.72;;
64885;SDS011;51514;52.206;5.114;2023-09-08T02:07:28;7.82;;;5.75;;
64885;SDS011;51514;52.206;5.114;2023-09-08T02:09:54;6.68;;;5.55;;
64885;SDS011;51514;52.206;5.114;2023-09-08T02:12:19;8.63;;;6.00;;
64885;SDS011;51514;52.206;5.114;2023-09-08T02:14:46;8.23;;;6.53;;
64885;SDS011;51514;52.206;5.114;2023-09-08T02:17:11;8.00;;;6.25;;
64885;SDS011;51514;52.206;5.114;2023-09-08T02:19:37;8.70;;;6.82;;
64885;SDS011;51514;52.206;5.114;2023-09-08T02:22:02;7.45;;;6.13;;
64885;SDS011;51514;52.206;5.114;2023-09-08T02:24:27;7.72;;;6.53;;
64885;SDS011;51514;52.206;5.114;2023-09-08T02:26:53;8.20;;;6.38;;
64885;SDS011;51514;52.206;5.114;2023-09-08T02:29:19;10.15;;;6.68;;
64885;SDS011;51514;52.206;5.114;2023-09-08T02:31:44;7.03;;;6.28;;
64885;SDS011;51514;52.206;5.114;2023-09-08T02:34:10;9.30;;;6.20;;
64885;SDS011;51514;52.206;5.114;2023-09-08T02:36:37;7.68;;;6.25;;
64885;SDS011;51514;52.206;5.114;2023-09-08T02:39:03;7.55;;;6.00;;
64885;SDS011;51514;52.206;5.114;2023-09-08T02:41:28;7.32;;;6.20;;
64885;SDS011;51514;52.206;5.114;2023-09-08T02:43:54;8.07;;;6.30;;
64885;SDS011;51514;52.206;5.114;2023-09-08T02:46:19;7.20;;;5.75;;
64885;SDS011;51514;52.206;5.114;2023-09-08T02:48:45;8.90;;;6.22;;
64885;SDS011;51514;52.206;5.114;2023-09-08T02:51:10;7.60;;;6.57;;
64885;SDS011;51514;52.206;5.114;2023-09-08T02:53:37;7.68;;;6.07;;
64885;SDS011;51514;52.206;5.114;2023-09-08T02:56:02;8.55;;;6.30;;
64885;SDS011;51514;52.206;5.114;2023-09-08T02:58:30;7.20;;;6.00;;
64885;SDS011;51514;52.206;5.114;2023-09-08T03:01:06;6.80;;;6.10;;
64885;SDS011;51514;52.206;5.114;2023-09-08T03:03:38;8.52;;;6.60;;
64885;SDS011;51514;52.206;5.114;2023-09-08T03:06:04;7.32;;;6.10;;
64885;SDS011;51514;52.206;5.114;2023-09-08T03:08:29;7.20;;;5.78;;
64885;SDS011;51514;52.206;5.114;2023-09-08T03:10:56;9.57;;;6.47;;
64885;SDS011;51514;52.206;5.114;2023-09-08T03:13:22;7.93;;;6.63;;
64885;SDS011;51514;52.206;5.114;2023-09-08T03:15:47;8.68;;;6.32;;
64885;SDS011;51514;52.206;5.114;2023-09-08T03:18:13;9.48;;;6.45;;
64885;SDS011;51514;52.206;5.114;2023-09-08T03:20:38;7.28;;;6.38;;
64885;SDS011;51514;52.206;5.114;2023-09-08T03:23:05;8.02;;;6.53;;
64885;SDS011;51514;52.206;5.114;2023-09-08T03:25:31;11.55;;;6.80;;
64885;SDS011;51514;52.206;5.114;2023-09-08T03:27:56;8.15;;;6.80;;
64885;SDS011;51514;52.206;5.114;2023-09-08T03:30:21;8.70;;;6.32;;
64885;SDS011;51514;52.206;5.114;2023-09-08T03:32:47;8.35;;;6.45;;
64885;SDS011;51514;52.206;5.114;2023-09-08T03:35:12;9.35;;;6.50;;
64885;SDS011;51514;52.206;5.114;2023-09-08T03:37:37;7.28;;;6.38;;
64885;SDS011;51514;52.206;5.114;2023-09-08T03:40:03;7.50;;;6.70;;
64885;SDS011;51514;52.206;5.114;2023-09-08T03:44:57;9.63;;;6.05;;
64885;SDS011;51514;52.206;5.114;2023-09-08T03:47:22;8.15;;;6.35;;
64885;SDS011;51514;52.206;5.114;2023-09-08T03:49:48;8.18;;;5.70;;
64885;SDS011;51514;52.206;5.114;2023-09-08T03:52:13;10.77;;;6.65;;
64885;SDS011;51514;52.206;5.114;2023-09-08T03:54:38;8.57;;;6.10;;
64885;SDS011;51514;52.206;5.114;2023-09-08T03:57:04;7.85;;;6.18;;
64885;SDS011;51514;52.206;5.114;2023-09-08T03:59:29;7.55;;;6.03;;
64885;SDS011;51514;52.206;5.114;2023-09-08T04:01:54;9.07;;;6.93;;
64885;SDS011;51514;52.206;5.114;2023-09-08T04:04:20;6.88;;;5.85;;
64885;SDS011;51514;52.206;5.114;2023-09-08T04:06:45;9.63;;;6.70;;
64885;SDS011;51514;52.206;5.114;2023-09-08T04:09:11;8.18;;;7.15;;
64885;SDS011;51514;52.206;5.114;2023-09-08T04:11:36;9.98;;;7.03;;
64885;SDS011;51514;52.206;5.114;2023-09-08T04:14:02;9.80;;;6.30;;
64885;SDS011;51514;52.206;5.114;2023-09-08T04:16:28;10.60;;;6.65;;
64885;SDS011;51514;52.206;5.114;2023-09-08T04:18:53;8.50;;;7.18;;
64885;SDS011;51514;52.206;5.114;2023-09-08T04:21:18;7.60;;;6.63;;
64885;SDS011;51514;52.206;5.114;2023-09-08T04:23:44;9.43;;;6.70;;
64885;SDS011;51514;52.206;5.114;2023-09-08T04:26:09;11.40;;;6.97;;
64885;SDS011;51514;52.206;5.114;2023-09-08T04:28:35;7.05;;;6.28;;
64885;SDS011;51514;52.206;5.114;2023-09-08T04:31:00;8.52;;;7.18;;
64885;SDS011;51514;52.206;5.114;2023-09-08T04:33:26;7.47;;;6.68;;
64885;SDS011;51514;52.206;5.114;2023-09-08T04:35:51;7.45;;;6.22;;
64885;SDS011;51514;52.206;5.114;2023-09-08T04:38:16;7.43;;;6.18;;
64885;SDS011;51514;52.206;5.114;2023-09-08T04:40:42;7.45;;;6.10;;
64885;SDS011;51514;52.206;5.114;2023-09-08T04:43:12;7.15;;;6.43;;
64885;SDS011;51514;52.206;5.114;2023-09-08T04:45:37;9.82;;;6.53;;
64885;SDS011;51514;52.206;5.114;2023-09-08T04:48:03;7.40;;;6.30;;
64885;SDS011;51514;52.206;5.114;2023-09-08T04:50:30;8.48;;;6.00;;
64885;SDS011;51514;52.206;5.114;2023-09-08T04:52:55;6.78;;;5.90;;
64885;SDS011;51514;52.206;5.114;2023-09-08T04:55:20;8.50;;;6.20;;
64885;SDS011;51514;52.206;5.114;2023-09-08T04:57:46;7.38;;;5.90;;
64885;SDS011;51514;52.206;5.114;2023-09-08T05:00:11;7.40;;;6.43;;
64885;SDS011;51514;52.206;5.114;2023-09-08T05:02:37;7.93;;;5.63;;
64885;SDS011;51514;52.206;5.114;2023-09-08T05:05:03;7.75;;;6.43;;
64885;SDS011;51514;52.206;5.114;2023-09-08T05:07:28;8.25;;;6.53;;
64885;SDS011;51514;52.206;5.114;2023-09-08T05:09:54;8.40;;;6.00;;
64885;SDS011;51514;52.206;5.114;2023-09-08T05:12:19;7.13;;;5.95;;
64885;SDS011;51514;52.206;5.114;2023-09-08T05:14:45;7.15;;;6.35;;
64885;SDS011;51514;52.206;5.114;2023-09-08T05:17:10;7.15;;;6.28;;
64885;SDS011;51514;52.206;5.114;2023-09-08T05:19:36;8.02;;;6.05;;
64885;SDS011;51514;52.206;5.114;2023-09-08T05:22:01;7.53;;;5.93;;
64885;SDS011;51514;52.206;5.114;2023-09-08T05:24:26;6.22;;;5.63;;
64885;SDS011;51514;52.206;5.114;2023-09-08T05:26:52;8.52;;;6.15;;
64885;SDS011;51514;52.206;5.114;2023-09-08T05:29:17;7.65;;;6.00;;
64885;SDS011;51514;52.206;5.114;2023-09-08T05:31:43;8.07;;;6.43;;
64885;SDS011;51514;52.206;5.114;2023-09-08T05:34:08;7.88;;;6.03;;
64885;SDS011;51514;52.206;5.114;2023-09-08T05:36:34;10.50;;;6.68;;
64885;SDS011;51514;52.206;5.114;2023-09-08T05:39:01;8.05;;;6.18;;
64885;SDS011;51514;52.206;5.114;2023-09-08T05:41:27;9.40;;;6.47;;
64885;SDS011;51514;52.206;5.114;2023-09-08T05:43:53;7.82;;;6.43;;
64885;SDS011;51514;52.206;5.114;2023-09-08T05:46:19;8.00;;;6.63;;
64885;SDS011;51514;52.206;5.114;2023-09-08T05:48:44;7.55;;;6.07;;
64885;SDS011;51514;52.206;5.114;2023-09-08T05:51:10;7.72;;;5.93;;
64885;SDS011;51514;52.206;5.114;2023-09-08T05:53:35;9.25;;;6.80;;
64885;SDS011;51514;52.206;5.114;2023-09-08T05:56:03;8.75;;;6.80;;
64885;SDS011;51514;52.206;5.114;2023-09-08T05:58:28;8.95;;;6.90;;
64885;SDS011;51514;52.206;5.114;2023-09-08T06:00:54;7.63;;;6.25;;
64885;SDS011;51514;52.206;5.114;2023-09-08T06:03:19;8.98;;;7.22;;
64885;SDS011;51514;52.206;5.114;2023-09-08T06:05:45;8.95;;;6.68;;
64885;SDS011;51514;52.206;5.114;2023-09-08T06:08:10;9.25;;;6.20;;
64885;SDS011;51514;52.206;5.114;2023-09-08T06:10:37;8.15;;;6.53;;
64885;SDS011;51514;52.206;5.114;2023-09-08T06:13:03;8.68;;;6.30;;
64885;SDS011;51514;52.206;5.114;2023-09-08T06:15:28;8.20;;;6.57;;
64885;SDS011;51514;52.206;5.114;2023-09-08T06:17:53;7.10;;;6.30;;
64885;SDS011;51514;52.206;5.114;2023-09-08T06:20:19;9.02;;;6.80;;
64885;SDS011;51514;52.206;5.114;2023-09-08T06:22:44;9.48;;;7.20;;
64885;SDS011;51514;52.206;5.114;2023-09-08T06:25:10;9.40;;;6.80;;
64885;SDS011;51514;52.206;5.114;2023-09-08T06:27:35;9.10;;;6.30;;
64885;SDS011;51514;52.206;5.114;2023-09-08T06:30:00;8.45;;;6.43;;
64885;SDS011;51514;52.206;5.114;2023-09-08T06:32:26;8.52;;;6.85;;
64885;SDS011;51514;52.206;5.114;2023-09-08T06:34:51;9.23;;;6.70;;
64885;SDS011;51514;52.206;5.114;2023-09-08T06:37:17;8.77;;;7.32;;
64885;SDS011;51514;52.206;5.114;2023-09-08T06:39:42;9.90;;;8.05;;
64885;SDS011;51514;52.206;5.114;2023-09-08T06:42:07;10.23;;;8.32;;
64885;SDS011;51514;52.206;5.114;2023-09-08T06:44:33;8.80;;;7.57;;
64885;SDS011;51514;52.206;5.114;2023-09-08T06:46:58;13.02;;;8.25;;
64885;SDS011;51514;52.206;5.114;2023-09-08T06:49:23;9.90;;;7.95;;
64885;SDS011;51514;52.206;5.114;2023-09-08T06:51:49;11.23;;;7.72;;
64885;SDS011;51514;52.206;5.114;2023-09-08T06:54:14;10.05;;;8.27;;
64885;SDS011;51514;52.206;5.114;2023-09-08T06:56:40;11.52;;;8.70;;
64885;SDS011;51514;52.206;5.114;2023-09-08T06:59:05;9.45;;;7.70;;
64885;SDS011;51514;52.206;5.114;2023-09-08T07:01:30;11.23;;;8.40;;
64885;SDS011;51514;52.206;5.114;2023-09-08T07:03:56;9.23;;;8.27;;
64885;SDS011;51514;52.206;5.114;2023-09-08T07:06:21;11.65;;;8.20;;
64885;SDS011;51514;52.206;5.114;2023-09-08T07:08:47;11.05;;;8.60;;
64885;SDS011;51514;52.206;5.114;2023-09-08T07:11:15;10.50;;;8.75;;
64885;SDS011;51514;52.206;5.114;2023-09-08T07:13:40;10.88;;;9.05;;
64885;SDS011;51514;52.206;5.114;2023-09-08T07:16:06;10.57;;;9.43;;
64885;SDS011;51514;52.206;5.114;2023-09-08T07:18:31;10.35;;;8.73;;
64885;SDS011;51514;52.206;5.114;2023-09-08T07:21:00;11.23;;;9.00;;
64885;SDS011;51514;52.206;5.114;2023-09-08T07:23:26;13.43;;;8.98;;
64885;SDS011;51514;52.206;5.114;2023-09-08T07:25:51;14.15;;;10.20;;
64885;SDS011;51514;52.206;5.114;2023-09-08T07:28:17;12.68;;;8.95;;
64885;SDS011;51514;52.206;5.114;2023-09-08T07:30:42;12.45;;;8.25;;
64885;SDS011;51514;52.206;5.114;2023-09-08T07:33:08;9.60;;;8.48;;
64885;SDS011;51514;52.206;5.114;2023-09-08T07:35:36;10.48;;;7.97;;
64885;SDS011;51514;52.206;5.114;2023-09-08T07:40:27;15.35;;;8.02;;
64885;SDS011;51514;52.206;5.114;2023-09-08T07:42:53;10.93;;;7.57;;
64885;SDS011;51514;52.206;5.114;2023-09-08T07:45:18;9.45;;;8.35;;
64885;SDS011;51514;52.206;5.114;2023-09-08T07:47:43;12.57;;;8.00;;
64885;SDS011;51514;52.206;5.114;2023-09-08T07:50:19;9.80;;;7.95;;
64885;SDS011;51514;52.206;5.114;2023-09-08T07:52:46;11.45;;;7.07;;
64885;SDS011;51514;52.206;5.114;2023-09-08T07:55:13;8.15;;;6.88;;
64885;SDS011;51514;52.206;5.114;2023-09-08T07:57:39;10.00;;;7.15;;
64885;SDS011;51514;52.206;5.114;2023-09-08T08:00:06;12.02;;;8.38;;
64885;SDS011;51514;52.206;5.114;2023-09-08T08:02:35;9.25;;;8.05;;
64885;SDS011;51514;52.206;5.114;2023-09-08T08:05:01;11.57;;;7.75;;
64885;SDS011;51514;52.206;5.114;2023-09-08T08:07:26;10.50;;;7.85;;
64885;SDS011;51514;52.206;5.114;2023-09-08T08:09:52;11.30;;;7.47;;
64885;SDS011;51514;52.206;5.114;2023-09-08T08:12:18;8.93;;;7.50;;
64885;SDS011;51514;52.206;5.114;2023-09-08T08:14:44;9.30;;;7.70;;
64885;SDS011;51514;52.206;5.114;2023-09-08T08:17:09;9.25;;;6.85;;
64885;SDS011;51514;52.206;5.114;2023-09-08T08:19:36;10.68;;;7.50;;
64885;SDS011;51514;52.206;5.114;2023-09-08T08:22:01;10.43;;;6.95;;
64885;SDS011;51514;52.206;5.114;2023-09-08T08:24:26;10.57;;;7.47;;
64885;SDS011;51514;52.206;5.114;2023-09-08T08:26:52;8.27;;;7.40;;
64885;SDS011;51514;52.206;5.114;2023-09-08T08:29:17;11.68;;;7.35;;
64885;SDS011;51514;52.206;5.114;2023-09-08T08:31:43;12.18;;;7.80;;
64885;SDS011;51514;52.206;5.114;2023-09-08T08:34:08;12.93;;;7.93;;
64885;SDS011;51514;52.206;5.114;2023-09-08T08:36:34;9.95;;;8.10;;
64885;SDS011;51514;52.206;5.114;2023-09-08T08:38:59;10.65;;;7.68;;
64885;SDS011;51514;52.206;5.114;2023-09-08T08:41:25;9.35;;;7.35;;
64885;SDS011;51514;52.206;5.114;2023-09-08T08:43:51;10.57;;;8.07;;
64885;SDS011;51514;52.206;5.114;2023-09-08T08:46:18;9.00;;;7.78;;
64885;SDS011;51514;52.206;5.114;2023-09-08T08:48:46;8.93;;;7.68;;
64885;SDS011;51514;52.206;5.114;2023-09-08T08:51:14;12.32;;;8.05;;
64885;SDS011;51514;52.206;5.114;2023-09-08T08:53:42;11.18;;;6.90;;
64885;SDS011;51514;52.206;5.114;2023-09-08T08:56:08;10.15;;;8.15;;
64885;SDS011;51514;52.206;5.114;2023-09-08T08:58:35;9.65;;;7.70;;
64885;SDS011;51514;52.206;5.114;2023-09-08T09:01:04;10.95;;;8.35;;
64885;SDS011;51514;52.206;5.114;2023-09-08T09:03:31;9.15;;;8.13;;
64885;SDS011;51514;52.206;5.114;2023-09-08T09:05:57;12.00;;;8.30;;
64885;SDS011;51514;52.206;5.114;2023-09-08T09:08:24;10.52;;;8.13;;
64885;SDS011;51514;52.206;5.114;2023-09-08T09:10:50;11.75;;;7.65;;
64885;SDS011;51514;52.206;5.114;2023-09-08T09:13:16;11.88;;;8.43;;
64885;SDS011;51514;52.206;5.114;2023-09-08T09:15:42;10.10;;;7.93;;
64885;SDS011;51514;52.206;5.114;2023-09-08T09:18:09;10.70;;;7.63;;
64885;SDS011;51514;52.206;5.114;2023-09-08T09:20:34;10.13;;;7.70;;
64885;SDS011;51514;52.206;5.114;2023-09-08T09:23:00;12.40;;;8.55;;
64885;SDS011;51514;52.206;5.114;2023-09-08T09:25:27;9.88;;;8.45;;
64885;SDS011;51514;52.206;5.114;2023-09-08T09:27:54;12.20;;;7.60;;
64885;SDS011;51514;52.206;5.114;2023-09-08T09:30:21;12.00;;;7.82;;
64885;SDS011;51514;52.206;5.114;2023-09-08T09:32:47;10.40;;;8.50;;
64885;SDS011;51514;52.206;5.114;2023-09-08T09:35:14;8.98;;;7.57;;
64885;SDS011;51514;52.206;5.114;2023-09-08T09:37:41;8.35;;;7.38;;
64885;SDS011;51514;52.206;5.114;2023-09-08T09:40:07;11.18;;;7.05;;
64885;SDS011;51514;52.206;5.114;2023-09-08T09:42:34;9.68;;;7.28;;
64885;SDS011;51514;52.206;5.114;2023-09-08T09:45:04;9.88;;;7.50;;
64885;SDS011;51514;52.206;5.114;2023-09-08T09:47:30;11.68;;;7.60;;
64885;SDS011;51514;52.206;5.114;2023-09-08T09:49:55;9.45;;;7.35;;
64885;SDS011;51514;52.206;5.114;2023-09-08T09:52:23;11.02;;;7.13;;
64885;SDS011;51514;52.206;5.114;2023-09-08T09:54:51;8.57;;;7.10;;
64885;SDS011;51514;52.206;5.114;2023-09-08T09:57:19;9.50;;;7.90;;
64885;SDS011;51514;52.206;5.114;2023-09-08T09:59:46;10.00;;;7.78;;
64885;SDS011;51514;52.206;5.114;2023-09-08T10:02:15;10.60;;;8.05;;
64885;SDS011;51514;52.206;5.114;2023-09-08T10:04:45;10.48;;;7.05;;
64885;SDS011;51514;52.206;5.114;2023-09-08T10:07:13;9.75;;;6.90;;
64885;SDS011;51514;52.206;5.114;2023-09-08T10:09:40;8.27;;;7.00;;
64885;SDS011;51514;52.206;5.114;2023-09-08T10:12:05;10.52;;;7.00;;
64885;SDS011;51514;52.206;5.114;2023-09-08T10:14:36;10.02;;;7.43;;
64885;SDS011;51514;52.206;5.114;2023-09-08T10:17:06;8.07;;;6.78;;
64885;SDS011;51514;52.206;5.114;2023-09-08T10:19:36;10.30;;;7.25;;
64885;SDS011;51514;52.206;5.114;2023-09-08T10:22:06;8.95;;;7.32;;
64885;SDS011;51514;52.206;5.114;2023-09-08T10:24:37;8.73;;;6.47;;
64885;SDS011;51514;52.206;5.114;2023-09-08T10:29:35;8.00;;;6.43;;
64885;SDS011;51514;52.206;5.114;2023-09-08T10:32:01;12.32;;;7.07;;
64885;SDS011;51514;52.206;5.114;2023-09-08T10:34:27;10.88;;;6.70;;
64885;SDS011;51514;52.206;5.114;2023-09-08T10:36:55;9.60;;;7.10;;
64885;SDS011;51514;52.206;5.114;2023-09-08T10:39:31;9.55;;;6.57;;
64885;SDS011;51514;52.206;5.114;2023-09-08T10:44:41;8.10;;;6.65;;
64885;SDS011;51514;52.206;5.114;2023-09-08T10:47:07;9.20;;;6.20;;
64885;SDS011;51514;52.206;5.114;2023-09-08T10:49:35;7.15;;;6.38;;
64885;SDS011;51514;52.206;5.114;2023-09-08T10:52:07;8.43;;;6.68;;
64885;SDS011;51514;52.206;5.114;2023-09-08T10:54:40;9.00;;;6.45;;
64885;SDS011;51514;52.206;5.114;2023-09-08T10:57:06;7.53;;;6.60;;
64885;SDS011;51514;52.206;5.114;2023-09-08T11:02:36;8.00;;;7.20;;
64885;SDS011;51514;52.206;5.114;2023-09-08T11:05:12;12.90;;;6.70;;
64885;SDS011;51514;52.206;5.114;2023-09-08T11:07:42;7.65;;;6.63;;
64885;SDS011;51514;52.206;5.114;2023-09-08T11:10:08;9.30;;;6.55;;
64885;SDS011;51514;52.206;5.114;2023-09-08T11:12:35;8.73;;;7.40;;
64885;SDS011;51514;52.206;5.114;2023-09-08T11:15:01;10.52;;;7.00;;
64885;SDS011;51514;52.206;5.114;2023-09-08T11:17:32;10.40;;;6.93;;
64885;SDS011;51514;52.206;5.114;2023-09-08T11:19:59;10.77;;;6.90;;
64885;SDS011;51514;52.206;5.114;2023-09-08T11:22:25;12.90;;;7.05;;
64885;SDS011;51514;52.206;5.114;2023-09-08T11:24:51;8.27;;;7.47;;
64885;SDS011;51514;52.206;5.114;2023-09-08T11:27:18;10.80;;;6.70;;
64885;SDS011;51514;52.206;5.114;2023-09-08T11:29:44;9.77;;;7.57;;
64885;SDS011;51514;52.206;5.114;2023-09-08T11:32:10;9.73;;;7.25;;
64885;SDS011;51514;52.206;5.114;2023-09-08T11:34:36;9.90;;;7.07;;
64885;SDS011;51514;52.206;5.114;2023-09-08T11:37:11;10.82;;;7.20;;
64885;SDS011;51514;52.206;5.114;2023-09-08T11:39:38;11.13;;;6.88;;
64885;SDS011;51514;52.206;5.114;2023-09-08T11:42:05;8.23;;;6.72;;
64885;SDS011;51514;52.206;5.114;2023-09-08T11:44:31;9.38;;;6.65;;
64885;SDS011;51514;52.206;5.114;2023-09-08T11:46:57;10.43;;;7.13;;
64885;SDS011;51514;52.206;5.114;2023-09-08T11:49:22;8.10;;;6.63;;
64885;SDS011;51514;52.206;5.114;2023-09-08T11:51:48;10.00;;;7.10;;
64885;SDS011;51514;52.206;5.114;2023-09-08T11:54:14;8.10;;;6.95;;
64885;SDS011;51514;52.206;5.114;2023-09-08T11:56:40;8.98;;;7.47;;
64885;SDS011;51514;52.206;5.114;2023-09-08T11:59:06;8.20;;;7.40;;
64885;SDS011;51514;52.206;5.114;2023-09-08T12:01:32;9.95;;;7.63;;
64885;SDS011;51514;52.206;5.114;2023-09-08T12:03:58;9.40;;;7.07;;
64885;SDS011;51514;52.206;5.114;2023-09-08T12:06:24;8.07;;;6.70;;
64885;SDS011;51514;52.206;5.114;2023-09-08T12:08:50;10.35;;;6.72;;
64885;SDS011;51514;52.206;5.114;2023-09-08T12:11:16;7.97;;;6.70;;
64885;SDS011;51514;52.206;5.114;2023-09-08T12:13:41;8.88;;;7.18;;
64885;SDS011;51514;52.206;5.114;2023-09-08T12:16:19;7.50;;;6.20;;
64885;SDS011;51514;52.206;5.114;2023-09-08T12:18:48;8.77;;;7.20;;
64885;SDS011;51514;52.206;5.114;2023-09-08T12:21:14;10.13;;;6.72;;
64885;SDS011;51514;52.206;5.114;2023-09-08T12:23:46;8.52;;;6.43;;
64885;SDS011;51514;52.206;5.114;2023-09-08T12:26:14;9.65;;;6.40;;
64885;SDS011;51514;52.206;5.114;2023-09-08T12:28:41;7.65;;;6.53;;
64885;SDS011;51514;52.206;5.114;2023-09-08T12:31:07;7.93;;;7.13;;
64885;SDS011;51514;52.206;5.114;2023-09-08T12:33:33;9.90;;;6.32;;
64885;SDS011;51514;52.206;5.114;2023-09-08T12:35:59;7.15;;;6.25;;
64885;SDS011;51514;52.206;5.114;2023-09-08T12:38:30;9.20;;;6.60;;
64885;SDS011;51514;52.206;5.114;2023-09-08T12:40:57;11.70;;;7.25;;
64885;SDS011;51514;52.206;5.114;2023-09-08T12:43:22;7.22;;;6.25;;
64885;SDS011;51514;52.206;5.114;2023-09-08T12:45:47;9.60;;;6.47;;
64885;SDS011;51514;52.206;5.114;2023-09-08T12:48:12;9.15;;;7.25;;
64885;SDS011;51514;52.206;5.114;2023-09-08T12:50:38;9.98;;;6.25;;
64885;SDS011;51514;52.206;5.114;2023-09-08T12:53:03;8.27;;;6.28;;
64885;SDS011;51514;52.206;5.114;2023-09-08T12:55:29;6.93;;;6.00;;
64885;SDS011;51514;52.206;5.114;2023-09-08T12:57:54;8.65;;;6.00;;
64885;SDS011;51514;52.206;5.114;2023-09-08T13:00:20;7.57;;;5.93;;
64885;SDS011;51514;52.206;5.114;2023-09-08T13:02:49;7.60;;;6.57;;
64885;SDS011;51514;52.206;5.114;2023-09-08T13:05:15;8.68;;;6.25;;
64885;SDS011;51514;52.206;5.114;2023-09-08T13:07:40;9.77;;;6.50;;
64885;SDS011;51514;52.206;5.114;2023-09-08T13:10:06;7.85;;;6.32;;
64885;SDS011;51514;52.206;5.114;2023-09-08T13:12:32;7.38;;;6.45;;
64885;SDS011;51514;52.206;5.114;2023-09-08T13:14:58;7.88;;;6.22;;
64885;SDS011;51514;52.206;5.114;2023-09-08T13:17:23;7.50;;;6.30;;
64885;SDS011;51514;52.206;5.114;2023-09-08T13:19:49;7.05;;;5.88;;
64885;SDS011;51514;52.206;5.114;2023-09-08T13:22:14;7.13;;;6.07;;
64885;SDS011;51514;52.206;5.114;2023-09-08T13:24:40;6.95;;;5.43;;
64885;SDS011;51514;52.206;5.114;2023-09-08T13:27:05;7.85;;;6.00;;
64885;SDS011;51514;52.206;5.114;2023-09-08T13:29:31;7.43;;;5.93;;
64885;SDS011;51514;52.206;5.114;2023-09-08T13:31:56;8.25;;;6.18;;
64885;SDS011;51514;52.206;5.114;2023-09-08T13:34:22;7.90;;;5.72;;
64885;SDS011;51514;52.206;5.114;2023-09-08T13:36:48;7.50;;;5.78;;
64885;SDS011;51514;52.206;5.114;2023-09-08T13:39:14;7.75;;;5.78;;
64885;SDS011;51514;52.206;5.114;2023-09-08T13:41:59;6.72;;;5.32;;
64885;SDS011;51514;52.206;5.114;2023-09-08T13:44:25;7.20;;;6.07;;
64885;SDS011;51514;52.206;5.114;2023-09-08T13:46:51;7.00;;;5.97;;
64885;SDS011;51514;52.206;5.114;2023-09-08T13:49:18;7.63;;;6.15;;
64885;SDS011;51514;52.206;5.114;2023-09-08T13:51:44;7.25;;;6.13;;
64885;SDS011;51514;52.206;5.114;2023-09-08T13:54:12;6.97;;;5.60;;
64885;SDS011;51514;52.206;5.114;2023-09-08T13:56:38;6.57;;;5.30;;
64885;SDS011;51514;52.206;5.114;2023-09-08T13:59:05;6.63;;;5.35;;
64885;SDS011;51514;52.206;5.114;2023-09-08T14:01:32;7.32;;;6.45;;
64885;SDS011;51514;52.206;5.114;2023-09-08T14:03:58;7.43;;;5.72;;
64885;SDS011;51514;52.206;5.114;2023-09-08T14:06:25;7.28;;;5.15;;
64885;SDS011;51514;52.206;5.114;2023-09-08T14:08:51;7.18;;;6.05;;
64885;SDS011;51514;52.206;5.114;2023-09-08T14:11:37;7.53;;;5.82;;
64885;SDS011;51514;52.206;5.114;2023-09-08T14:14:02;7.50;;;5.13;;
64885;SDS011;51514;52.206;5.114;2023-09-08T14:16:28;7.55;;;5.32;;
64885;SDS011;51514;52.206;5.114;2023-09-08T14:18:53;9.02;;;5.82;;
64885;SDS011;51514;52.206;5.114;2023-09-08T14:21:19;7.00;;;5.03;;
64885;SDS011;51514;52.206;5.114;2023-09-08T14:23:45;8.20;;;5.70;;
64885;SDS011;51514;52.206;5.114;2023-09-08T14:26:11;8.73;;;5.35;;
64885;SDS011;51514;52.206;5.114;2023-09-08T14:28:36;6.40;;;5.30;;
64885;SDS011;51514;52.206;5.114;2023-09-08T14:31:02;9.77;;;5.68;;
64885;SDS011;51514;52.206;5.114;2023-09-08T14:33:28;7.43;;;5.68;;
64885;SDS011;51514;52.206;5.114;2023-09-08T14:35:53;8.18;;;5.82;;
64885;SDS011;51514;52.206;5.114;2023-09-08T14:38:21;6.97;;;5.22;;
64885;SDS011;51514;52.206;5.114;2023-09-08T14:40:59;6.70;;;5.43;;
64885;SDS011;51514;52.206;5.114;2023-09-08T14:43:27;6.95;;;6.00;;
64885;SDS011;51514;52.206;5.114;2023-09-08T14:45:53;7.50;;;5.60;;
64885;SDS011;51514;52.206;5.114;2023-09-08T14:48:19;8.63;;;5.85;;
64885;SDS011;51514;52.206;5.114;2023-09-08T14:50:45;8.73;;;6.20;;
64885;SDS011;51514;52.206;5.114;2023-09-08T14:53:11;10.43;;;6.38;;
64885;SDS011;51514;52.206;5.114;2023-09-08T14:55:36;10.40;;;6.85;;
64885;SDS011;51514;52.206;5.114;2023-09-08T14:58:02;8.93;;;7.05;;
64885;SDS011;51514;52.206;5.114;2023-09-08T15:00:27;7.93;;;6.63;;